createdAt,value
2017-09-29T00:00:52.745Z,1022.53
2017-09-29T00:01:53.178Z,1022.49
2017-09-29T00:02:53.618Z,1022.48
2017-09-29T00:03:54.048Z,1022.47
2017-09-29T00:04:54.486Z,1022.49
2017-09-29T00:05:54.917Z,1022.44
2017-09-29T00:06:55.351Z,1022.42
2017-09-29T00:07:55.788Z,1022.43
2017-09-29T00:08:56.217Z,1022.44
2017-09-29T00:09:56.652Z,1022.43
2017-09-29T00:10:57.089Z,1022.41
2017-09-29T00:11:57.532Z,1022.39
2017-09-29T00:12:57.956Z,1022.35
2017-09-29T00:13:58.385Z,1022.38
2017-09-29T00:14:58.820Z,1022.36
2017-09-29T00:15:59.292Z,1022.35
2017-09-29T00:16:59.690Z,1022.34
2017-09-29T00:18:00.119Z,1022.31
2017-09-29T00:19:00.556Z,1022.35
2017-09-29T00:20:00.993Z,1022.32
2017-09-29T00:21:01.424Z,1022.31
2017-09-29T00:22:01.857Z,1022.30
2017-09-29T00:23:02.293Z,1022.27
2017-09-29T00:24:02.729Z,1022.31
2017-09-29T00:25:03.163Z,1022.29
2017-09-29T00:26:03.592Z,1022.28
2017-09-29T00:27:04.028Z,1022.26
2017-09-29T00:28:04.463Z,1022.25
2017-09-29T00:29:04.899Z,1022.28
2017-09-29T00:30:05.330Z,1022.29
2017-09-29T00:31:05.762Z,1022.26
2017-09-29T00:32:06.193Z,1022.28
2017-09-29T00:33:06.630Z,1022.25
2017-09-29T00:34:07.063Z,1022.30
2017-09-29T00:35:07.499Z,1022.28
2017-09-29T00:36:07.933Z,1022.28
2017-09-29T00:37:08.390Z,1022.26
2017-09-29T00:38:08.800Z,1022.28
2017-09-29T00:39:09.236Z,1022.27
2017-09-29T00:40:09.680Z,1022.27
2017-09-29T00:41:10.101Z,1022.30
2017-09-29T00:42:10.533Z,1022.28
2017-09-29T00:43:10.969Z,1022.30
2017-09-29T00:44:11.405Z,1022.27
2017-09-29T00:45:11.835Z,1022.28
2017-09-29T00:46:12.269Z,1022.30
2017-09-29T00:47:12.702Z,1022.32
2017-09-29T00:48:13.136Z,1022.32
2017-09-29T00:49:13.567Z,1022.31
2017-09-29T00:50:14.028Z,1022.30
2017-09-29T00:51:14.443Z,1022.29
2017-09-29T00:52:14.866Z,1022.28
2017-09-29T00:53:15.307Z,1022.30
2017-09-29T00:54:15.735Z,1022.29
2017-09-29T00:55:16.172Z,1022.30
2017-09-29T00:56:16.602Z,1022.31
2017-09-29T00:57:17.036Z,1022.34
2017-09-29T00:58:17.471Z,1022.32
2017-09-29T00:59:17.902Z,1022.32
2017-09-29T01:00:18.335Z,1022.32
2017-09-29T01:01:18.774Z,1022.31
2017-09-29T01:02:19.208Z,1022.33
2017-09-29T01:03:19.635Z,1022.32
2017-09-29T01:04:20.072Z,1022.31
2017-09-29T01:05:20.516Z,1022.29
2017-09-29T01:06:20.940Z,1022.29
2017-09-29T01:07:21.397Z,1022.29
2017-09-29T01:08:21.807Z,1022.26
2017-09-29T01:09:22.235Z,1022.25
2017-09-29T01:10:22.671Z,1022.26
2017-09-29T01:11:23.106Z,1022.24
2017-09-29T01:12:23.538Z,1022.24
2017-09-29T01:13:23.970Z,1022.18
2017-09-29T01:14:24.406Z,1022.21
2017-09-29T01:15:24.836Z,1022.19
2017-09-29T01:16:25.279Z,1022.20
2017-09-29T01:17:25.705Z,1022.16
2017-09-29T01:18:26.136Z,1022.16
2017-09-29T01:19:26.569Z,1022.21
2017-09-29T01:20:27.003Z,1022.20
2017-09-29T01:21:27.438Z,1022.23
2017-09-29T01:22:27.871Z,1022.22
2017-09-29T01:23:28.303Z,1022.23
2017-09-29T01:24:28.746Z,1022.25
2017-09-29T01:25:29.172Z,1022.25
2017-09-29T01:26:29.602Z,1022.23
2017-09-29T01:27:30.038Z,1022.23
2017-09-29T01:28:30.470Z,1022.26
2017-09-29T01:29:30.904Z,1022.26
2017-09-29T01:30:31.339Z,1022.25
2017-09-29T01:31:31.768Z,1022.25
2017-09-29T01:32:32.210Z,1022.20
2017-09-29T01:33:32.634Z,1022.23
2017-09-29T01:34:33.075Z,1022.23
2017-09-29T01:35:33.506Z,1022.20
2017-09-29T01:36:33.937Z,1022.19
2017-09-29T01:37:34.372Z,1022.20
2017-09-29T01:38:34.799Z,1022.20
2017-09-29T01:39:35.238Z,1022.19
2017-09-29T01:40:35.674Z,1022.17
2017-09-29T01:41:36.103Z,1022.15
2017-09-29T01:42:36.534Z,1022.19
2017-09-29T01:43:36.966Z,1022.19
2017-09-29T01:44:37.402Z,1022.17
2017-09-29T01:45:37.834Z,1022.19
2017-09-29T01:46:38.274Z,1022.19
2017-09-29T01:47:38.698Z,1022.19
2017-09-29T01:48:39.134Z,1022.18
2017-09-29T01:49:39.565Z,1022.12
2017-09-29T01:50:39.998Z,1022.15
2017-09-29T01:51:40.436Z,1022.13
2017-09-29T01:52:40.869Z,1022.15
2017-09-29T01:53:41.306Z,1022.19
2017-09-29T01:54:41.731Z,1022.16
2017-09-29T01:55:42.169Z,1022.18
2017-09-29T01:56:42.598Z,1022.16
2017-09-29T01:57:43.034Z,1022.15
2017-09-29T01:58:43.468Z,1022.15
2017-09-29T01:59:43.895Z,1022.17
2017-09-29T02:00:44.327Z,1022.20
2017-09-29T02:01:44.777Z,1022.14
2017-09-29T02:02:45.198Z,1022.19
2017-09-29T02:03:45.631Z,1022.17
2017-09-29T02:04:46.067Z,1022.15
2017-09-29T02:05:46.495Z,1022.15
2017-09-29T02:06:46.925Z,1022.18
2017-09-29T02:07:47.366Z,1022.15
2017-09-29T02:08:47.799Z,1022.17
2017-09-29T02:09:48.229Z,1022.17
2017-09-29T02:10:48.659Z,1022.17
2017-09-29T02:11:49.092Z,1022.15
2017-09-29T02:12:49.527Z,1022.14
2017-09-29T02:13:49.965Z,1022.13
2017-09-29T02:14:50.388Z,1022.12
2017-09-29T02:15:50.830Z,1022.09
2017-09-29T02:16:51.260Z,1022.14
2017-09-29T02:17:51.703Z,1022.08
2017-09-29T02:18:52.122Z,1022.10
2017-09-29T02:19:52.570Z,1022.08
2017-09-29T02:20:52.986Z,1022.09
2017-09-29T02:21:53.438Z,1022.07
2017-09-29T02:22:53.853Z,1022.08
2017-09-29T02:23:54.283Z,1022.04
2017-09-29T02:24:54.733Z,1022.08
2017-09-29T02:25:55.150Z,1022.00
2017-09-29T02:26:55.587Z,1022.06
2017-09-29T02:27:56.018Z,1022.02
2017-09-29T02:28:56.451Z,1021.99
2017-09-29T02:29:56.884Z,1022.02
2017-09-29T02:30:57.317Z,1021.99
2017-09-29T02:31:57.749Z,1022.01
2017-09-29T02:32:58.180Z,1021.97
2017-09-29T02:33:58.617Z,1021.97
2017-09-29T02:34:59.050Z,1021.99
2017-09-29T02:35:59.483Z,1021.95
2017-09-29T02:36:59.910Z,1021.95
2017-09-29T02:38:00.347Z,1021.97
2017-09-29T02:39:00.782Z,1021.95
2017-09-29T02:40:01.216Z,1021.96
2017-09-29T02:41:01.645Z,1021.96
2017-09-29T02:42:02.089Z,1021.97
2017-09-29T02:43:02.518Z,1021.98
2017-09-29T02:44:02.949Z,1021.95
2017-09-29T02:45:03.378Z,1021.90
2017-09-29T02:46:03.820Z,1021.95
2017-09-29T02:47:04.246Z,1021.95
2017-09-29T02:48:04.677Z,1021.90
2017-09-29T02:49:05.109Z,1021.93
2017-09-29T02:50:05.542Z,1021.94
2017-09-29T02:51:05.977Z,1021.92
2017-09-29T02:52:06.406Z,1021.94
2017-09-29T02:53:06.836Z,1021.90
2017-09-29T02:54:07.279Z,1021.93
2017-09-29T02:55:07.706Z,1021.91
2017-09-29T02:56:08.142Z,1021.95
2017-09-29T02:57:08.568Z,1021.91
2017-09-29T02:58:09.016Z,1021.95
2017-09-29T02:59:09.433Z,1021.94
2017-09-29T03:00:09.869Z,1021.95
2017-09-29T03:01:10.300Z,1021.91
2017-09-29T03:02:10.733Z,1021.96
2017-09-29T03:03:11.167Z,1021.94
2017-09-29T03:04:11.600Z,1021.91
2017-09-29T03:05:12.032Z,1021.91
2017-09-29T03:06:12.465Z,1021.89
2017-09-29T03:07:12.896Z,1021.92
2017-09-29T03:08:13.324Z,1021.90
2017-09-29T03:09:13.760Z,1021.91
2017-09-29T03:10:14.195Z,1021.87
2017-09-29T03:11:14.626Z,1021.85
2017-09-29T03:12:15.073Z,1021.88
2017-09-29T03:13:15.488Z,1021.86
2017-09-29T03:14:15.925Z,1021.90
2017-09-29T03:15:16.360Z,1021.89
2017-09-29T03:16:16.788Z,1021.86
2017-09-29T03:17:17.221Z,1021.86
2017-09-29T03:18:17.649Z,1021.89
2017-09-29T03:19:18.085Z,1021.89
2017-09-29T03:20:18.520Z,1021.92
2017-09-29T03:21:18.959Z,1021.84
2017-09-29T03:22:19.382Z,1021.87
2017-09-29T03:23:19.816Z,1021.86
2017-09-29T03:24:20.249Z,1021.88
2017-09-29T03:25:20.678Z,1021.81
2017-09-29T03:26:21.120Z,1021.83
2017-09-29T03:27:21.547Z,1021.83
2017-09-29T03:28:21.981Z,1021.79
2017-09-29T03:29:22.413Z,1021.78
2017-09-29T03:30:22.846Z,1021.80
2017-09-29T03:31:23.275Z,1021.76
2017-09-29T03:32:23.705Z,1021.79
2017-09-29T03:33:24.140Z,1021.75
2017-09-29T03:34:24.572Z,1021.77
2017-09-29T03:35:25.006Z,1021.75
2017-09-29T03:36:25.439Z,1021.74
2017-09-29T03:37:25.884Z,1021.71
2017-09-29T03:38:26.299Z,1021.71
2017-09-29T03:39:26.728Z,1021.71
2017-09-29T03:40:27.167Z,1021.72
2017-09-29T03:41:27.599Z,1021.74
2017-09-29T03:42:28.027Z,1021.75
2017-09-29T03:43:28.476Z,1021.76
2017-09-29T03:44:28.896Z,1021.77
2017-09-29T03:45:29.328Z,1021.77
2017-09-29T03:46:29.770Z,1021.78
2017-09-29T03:47:30.192Z,1021.76
2017-09-29T03:48:30.626Z,1021.78
2017-09-29T03:49:31.056Z,1021.77
2017-09-29T03:50:31.490Z,1021.78
2017-09-29T03:51:31.939Z,1021.77
2017-09-29T03:52:32.352Z,1021.71
2017-09-29T03:53:32.799Z,1021.74
2017-09-29T03:54:33.221Z,1021.75
2017-09-29T03:55:33.647Z,1021.68
2017-09-29T03:56:34.081Z,1021.69
2017-09-29T03:57:34.517Z,1021.72
2017-09-29T03:58:34.941Z,1021.66
2017-09-29T03:59:35.379Z,1021.70
2017-09-29T04:00:35.811Z,1021.69
2017-09-29T04:01:36.241Z,1021.73
2017-09-29T04:02:36.679Z,1021.70
2017-09-29T04:03:37.113Z,1021.68
2017-09-29T04:04:37.539Z,1021.69
2017-09-29T04:05:37.971Z,1021.71
2017-09-29T04:06:38.404Z,1021.69
2017-09-29T04:07:38.839Z,1021.68
2017-09-29T04:08:39.268Z,1021.70
2017-09-29T04:09:39.700Z,1021.73
2017-09-29T04:10:40.132Z,1021.75
2017-09-29T04:11:40.563Z,1021.73
2017-09-29T04:12:40.998Z,1021.73
2017-09-29T04:13:41.429Z,1021.71
2017-09-29T04:14:41.859Z,1021.75
2017-09-29T04:15:42.295Z,1021.74
2017-09-29T04:16:42.728Z,1021.74
2017-09-29T04:17:43.162Z,1021.73
2017-09-29T04:18:43.599Z,1021.74
2017-09-29T04:19:44.021Z,1021.76
2017-09-29T04:20:44.458Z,1021.72
2017-09-29T04:21:44.890Z,1021.76
2017-09-29T04:22:45.325Z,1021.76
2017-09-29T04:23:45.757Z,1021.75
2017-09-29T04:24:46.185Z,1021.78
2017-09-29T04:25:46.620Z,1021.83
2017-09-29T04:26:47.054Z,1021.83
2017-09-29T04:27:47.484Z,1021.85
2017-09-29T04:28:47.916Z,1021.87
2017-09-29T04:29:48.349Z,1021.83
2017-09-29T04:30:48.782Z,1021.87
2017-09-29T04:31:49.213Z,1021.86
2017-09-29T04:32:49.645Z,1021.85
2017-09-29T04:33:50.079Z,1021.89
2017-09-29T04:34:50.510Z,1021.91
2017-09-29T04:35:50.942Z,1021.90
2017-09-29T04:36:51.381Z,1021.89
2017-09-29T04:37:51.808Z,1021.91
2017-09-29T04:38:52.239Z,1021.90
2017-09-29T04:39:52.672Z,1021.92
2017-09-29T04:40:53.101Z,1021.93
2017-09-29T04:41:53.537Z,1021.92
2017-09-29T04:42:53.964Z,1021.94
2017-09-29T04:43:54.401Z,1021.94
2017-09-29T04:44:54.830Z,1021.98
2017-09-29T04:45:55.260Z,1021.97
2017-09-29T04:46:55.695Z,1021.98
2017-09-29T04:47:56.126Z,1022.00
2017-09-29T04:48:56.559Z,1021.98
2017-09-29T04:49:56.992Z,1021.99
2017-09-29T04:50:57.427Z,1022.02
2017-09-29T04:51:57.857Z,1021.99
2017-09-29T04:52:58.288Z,1022.01
2017-09-29T04:53:58.719Z,1022.01
2017-09-29T04:54:59.154Z,1022.06
2017-09-29T04:55:59.584Z,1022.03
2017-09-29T04:57:00.014Z,1022.01
2017-09-29T04:58:00.449Z,1022.02
2017-09-29T04:59:00.889Z,1021.98
2017-09-29T05:00:01.312Z,1021.97
2017-09-29T05:01:01.742Z,1021.98
2017-09-29T05:02:02.175Z,1021.96
2017-09-29T05:03:02.607Z,1021.96
2017-09-29T05:04:03.042Z,1021.97
2017-09-29T05:05:03.473Z,1021.96
2017-09-29T05:06:03.905Z,1021.98
2017-09-29T05:07:04.334Z,1021.97
2017-09-29T05:08:04.769Z,1021.99
2017-09-29T05:09:05.210Z,1021.98
2017-09-29T05:10:05.634Z,1021.98
2017-09-29T05:11:06.065Z,1021.99
2017-09-29T05:12:06.506Z,1022.01
2017-09-29T05:13:06.929Z,1021.95
2017-09-29T05:14:07.368Z,1021.94
2017-09-29T05:15:07.796Z,1021.97
2017-09-29T05:16:08.224Z,1021.99
2017-09-29T05:17:08.657Z,1021.97
2017-09-29T05:18:09.089Z,1021.96
2017-09-29T05:19:09.523Z,1021.97
2017-09-29T05:20:09.957Z,1021.97
2017-09-29T05:21:10.384Z,1021.94
2017-09-29T05:22:10.821Z,1021.91
2017-09-29T05:23:11.250Z,1021.88
2017-09-29T05:24:11.682Z,1021.88
2017-09-29T05:25:12.121Z,1021.88
2017-09-29T05:26:12.547Z,1021.92
2017-09-29T05:27:12.981Z,1021.92
2017-09-29T05:28:13.408Z,1021.92
2017-09-29T05:29:13.843Z,1021.91
2017-09-29T05:30:14.273Z,1021.94
2017-09-29T05:31:14.706Z,1021.93
2017-09-29T05:32:15.138Z,1021.90
2017-09-29T05:33:15.567Z,1021.95
2017-09-29T05:34:16.003Z,1021.95
2017-09-29T05:35:16.434Z,1021.93
2017-09-29T05:36:16.861Z,1021.93
2017-09-29T05:37:17.292Z,1021.95
2017-09-29T05:38:17.725Z,1021.96
2017-09-29T05:39:18.158Z,1021.95
2017-09-29T05:40:18.594Z,1021.98
2017-09-29T05:41:19.020Z,1021.96
2017-09-29T05:42:19.453Z,1022.02
2017-09-29T05:43:19.882Z,1022.00
2017-09-29T05:44:20.320Z,1022.04
2017-09-29T05:45:20.748Z,1022.01
2017-09-29T05:46:21.178Z,1022.01
2017-09-29T05:47:21.616Z,1022.05
2017-09-29T05:48:22.039Z,1022.04
2017-09-29T05:49:22.499Z,1021.99
2017-09-29T05:50:22.906Z,1022.04
2017-09-29T05:51:23.335Z,1022.04
2017-09-29T05:52:23.767Z,1021.99
2017-09-29T05:53:24.203Z,1022.01
2017-09-29T05:54:24.632Z,1022.00
2017-09-29T05:55:25.064Z,1021.98
2017-09-29T05:56:25.491Z,1022.01
2017-09-29T05:57:25.928Z,1021.99
2017-09-29T05:58:26.356Z,1021.97
2017-09-29T05:59:26.788Z,1022.02
2017-09-29T06:00:27.221Z,1022.00
2017-09-29T06:01:27.652Z,1021.99
2017-09-29T06:02:28.084Z,1022.01
2017-09-29T06:03:28.515Z,1022.00
2017-09-29T06:04:28.959Z,1021.96
2017-09-29T06:05:29.381Z,1021.98
2017-09-29T06:06:29.811Z,1021.97
2017-09-29T06:07:30.242Z,1021.93
2017-09-29T06:08:30.671Z,1021.97
2017-09-29T06:09:31.100Z,1021.98
2017-09-29T06:10:31.539Z,1022.03
2017-09-29T06:11:31.966Z,1021.99
2017-09-29T06:12:32.405Z,1021.99
2017-09-29T06:13:32.826Z,1021.99
2017-09-29T06:14:33.257Z,1022.00
2017-09-29T06:15:33.691Z,1021.97
2017-09-29T06:16:34.119Z,1022.00
2017-09-29T06:17:34.557Z,1022.00
2017-09-29T06:18:34.985Z,1021.98
2017-09-29T06:19:35.414Z,1021.98
2017-09-29T06:20:35.846Z,1021.97
2017-09-29T06:21:36.281Z,1021.97
2017-09-29T06:22:36.713Z,1022.02
2017-09-29T06:23:37.139Z,1021.98
2017-09-29T06:24:37.572Z,1021.98
2017-09-29T06:25:38.004Z,1022.00
2017-09-29T06:26:38.440Z,1021.99
2017-09-29T06:27:38.869Z,1021.96
2017-09-29T06:28:39.297Z,1021.97
2017-09-29T06:29:39.733Z,1022.00
2017-09-29T06:30:40.159Z,1022.02
2017-09-29T06:31:40.590Z,1022.02
2017-09-29T06:32:41.029Z,1022.02
2017-09-29T06:33:41.455Z,1022.06
2017-09-29T06:34:41.886Z,1022.06
2017-09-29T06:35:42.324Z,1022.07
2017-09-29T06:36:42.779Z,1022.06
2017-09-29T06:37:43.206Z,1022.10
2017-09-29T06:38:43.649Z,1022.10
2017-09-29T06:39:44.068Z,1022.10
2017-09-29T06:40:44.504Z,1022.10
2017-09-29T06:41:44.941Z,1022.11
2017-09-29T06:42:45.368Z,1022.16
2017-09-29T06:43:45.795Z,1022.18
2017-09-29T06:44:46.257Z,1022.19
2017-09-29T06:45:46.653Z,1022.21
2017-09-29T06:46:47.096Z,1022.23
2017-09-29T06:47:47.527Z,1022.19
2017-09-29T06:48:47.953Z,1022.22
2017-09-29T06:49:48.436Z,1022.22
2017-09-29T06:50:48.821Z,1022.22
2017-09-29T06:51:49.264Z,1022.22
2017-09-29T06:52:49.689Z,1022.25
2017-09-29T06:53:50.115Z,1022.26
2017-09-29T06:54:50.539Z,1022.28
2017-09-29T06:55:50.971Z,1022.30
2017-09-29T06:56:51.414Z,1022.28
2017-09-29T06:57:51.819Z,1022.27
2017-09-29T06:58:52.276Z,1022.27
2017-09-29T06:59:52.721Z,1022.30
2017-09-29T07:00:53.132Z,1022.28
2017-09-29T07:01:53.556Z,1022.30
2017-09-29T07:02:53.980Z,1022.28
2017-09-29T07:03:54.428Z,1022.28
2017-09-29T07:04:54.854Z,1022.28
2017-09-29T07:05:55.280Z,1022.24
2017-09-29T07:06:55.703Z,1022.30
2017-09-29T07:07:56.144Z,1022.23
2017-09-29T07:08:56.581Z,1022.23
2017-09-29T07:09:57.026Z,1022.24
2017-09-29T07:10:57.451Z,1022.21
2017-09-29T07:11:57.869Z,1022.19
2017-09-29T07:12:58.312Z,1022.20
2017-09-29T07:13:58.745Z,1022.23
2017-09-29T07:14:59.188Z,1022.25
2017-09-29T07:15:59.632Z,1022.26
2017-09-29T07:17:00.063Z,1022.28
2017-09-29T07:18:00.486Z,1022.24
2017-09-29T07:19:00.932Z,1022.29
2017-09-29T07:20:01.346Z,1022.31
2017-09-29T07:21:01.804Z,1022.31
2017-09-29T07:22:02.222Z,1022.37
2017-09-29T07:23:02.644Z,1022.31
2017-09-29T07:24:03.103Z,1022.32
2017-09-29T07:25:03.504Z,1022.35
2017-09-29T07:26:03.968Z,1022.36
2017-09-29T07:27:04.373Z,1022.36
2017-09-29T07:28:04.795Z,1022.35
2017-09-29T07:29:05.256Z,1022.35
2017-09-29T07:30:05.693Z,1022.35
2017-09-29T07:31:06.127Z,1022.37
2017-09-29T07:32:06.543Z,1022.38
2017-09-29T07:33:06.949Z,1022.35
2017-09-29T07:34:07.376Z,1022.33
2017-09-29T07:35:07.812Z,1022.34
2017-09-29T07:36:08.249Z,1022.34
2017-09-29T07:37:08.677Z,1022.32
2017-09-29T07:38:09.109Z,1022.36
2017-09-29T07:39:09.544Z,1022.38
2017-09-29T07:40:09.975Z,1022.36
2017-09-29T07:41:10.409Z,1022.40
2017-09-29T07:42:10.840Z,1022.40
2017-09-29T07:43:11.271Z,1022.38
2017-09-29T07:44:11.707Z,1022.41
2017-09-29T07:45:12.141Z,1022.41
2017-09-29T07:46:12.574Z,1022.35
2017-09-29T07:47:13.007Z,1022.40
2017-09-29T07:48:13.440Z,1022.39
2017-09-29T07:49:13.903Z,1022.44
2017-09-29T07:50:14.308Z,1022.41
2017-09-29T07:51:14.738Z,1022.43
2017-09-29T07:52:15.177Z,1022.43
2017-09-29T07:53:15.613Z,1022.46
2017-09-29T07:54:16.041Z,1022.42
2017-09-29T07:55:16.476Z,1022.43
2017-09-29T07:56:16.913Z,1022.43
2017-09-29T07:57:17.343Z,1022.43
2017-09-29T07:58:17.796Z,1022.41
2017-09-29T07:59:18.214Z,1022.38
2017-09-29T08:00:18.656Z,1022.40
2017-09-29T08:01:19.084Z,1022.37
2017-09-29T08:02:19.523Z,1022.39
2017-09-29T08:03:19.957Z,1022.37
2017-09-29T08:04:20.393Z,1022.33
2017-09-29T08:05:20.829Z,1022.32
2017-09-29T08:06:21.272Z,1022.35
2017-09-29T08:07:21.708Z,1022.34
2017-09-29T08:08:22.149Z,1022.33
2017-09-29T08:09:22.601Z,1022.37
2017-09-29T08:10:23.025Z,1022.30
2017-09-29T08:11:23.471Z,1022.27
2017-09-29T08:12:23.907Z,1022.31
2017-09-29T08:13:24.349Z,1022.31
2017-09-29T08:14:24.794Z,1022.32
2017-09-29T08:15:25.235Z,1022.31
2017-09-29T08:16:25.685Z,1022.35
2017-09-29T08:17:26.126Z,1022.31
2017-09-29T08:18:26.579Z,1022.35
2017-09-29T08:19:27.012Z,1022.31
2017-09-29T08:20:27.460Z,1022.34
2017-09-29T08:21:27.903Z,1022.30
2017-09-29T08:22:28.358Z,1022.32
2017-09-29T08:23:28.798Z,1022.29
2017-09-29T08:24:29.263Z,1022.28
2017-09-29T08:25:29.693Z,1022.28
2017-09-29T08:26:30.137Z,1022.30
2017-09-29T08:27:30.582Z,1022.29
2017-09-29T08:28:31.027Z,1022.24
2017-09-29T08:29:31.474Z,1022.24
2017-09-29T08:30:31.931Z,1022.25
2017-09-29T08:31:32.372Z,1022.23
2017-09-29T08:32:32.822Z,1022.23
2017-09-29T08:33:33.270Z,1022.25
2017-09-29T08:34:33.720Z,1022.24
2017-09-29T08:35:34.165Z,1022.24
2017-09-29T08:36:34.614Z,1022.23
2017-09-29T08:37:35.076Z,1022.26
2017-09-29T08:38:35.520Z,1022.23
2017-09-29T08:39:35.956Z,1022.21
2017-09-29T08:40:36.423Z,1022.18
2017-09-29T08:41:36.861Z,1022.20
2017-09-29T08:42:37.304Z,1022.15
2017-09-29T08:43:37.782Z,1022.11
2017-09-29T08:44:38.203Z,1022.11
2017-09-29T08:45:38.651Z,1022.07
2017-09-29T08:46:39.106Z,1022.08
2017-09-29T08:47:39.566Z,1022.09
2017-09-29T08:48:40.004Z,1022.06
2017-09-29T08:49:40.458Z,1022.07
2017-09-29T08:50:40.911Z,1022.06
2017-09-29T08:51:41.363Z,1022.08
2017-09-29T08:52:41.811Z,1022.10
2017-09-29T08:53:42.259Z,1022.03
2017-09-29T08:54:42.710Z,1022.04
2017-09-29T08:55:43.164Z,1022.02
2017-09-29T08:56:43.612Z,1022.05
2017-09-29T08:57:44.078Z,1022.00
2017-09-29T08:58:44.527Z,1021.96
2017-09-29T08:59:44.977Z,1022.01
2017-09-29T09:00:45.427Z,1022.01
2017-09-29T09:01:45.871Z,1021.95
2017-09-29T09:02:46.326Z,1021.96
2017-09-29T09:03:46.776Z,1022.01
2017-09-29T09:04:47.230Z,1021.96
2017-09-29T09:05:47.683Z,1022.00
2017-09-29T09:06:48.137Z,1021.94
2017-09-29T09:07:48.597Z,1021.93
2017-09-29T09:08:49.046Z,1021.92
2017-09-29T09:09:49.495Z,1021.88
2017-09-29T09:10:49.957Z,1021.87
2017-09-29T09:11:50.405Z,1021.85
2017-09-29T09:12:50.858Z,1021.85
2017-09-29T09:13:51.318Z,1021.85
2017-09-29T09:14:51.771Z,1021.81
2017-09-29T09:15:52.220Z,1021.86
2017-09-29T09:16:52.677Z,1021.84
2017-09-29T09:17:53.129Z,1021.80
2017-09-29T09:18:53.588Z,1021.82
2017-09-29T09:19:54.054Z,1021.81
2017-09-29T09:20:54.492Z,1021.75
2017-09-29T09:21:54.953Z,1021.71
2017-09-29T09:22:55.551Z,1021.75
2017-09-29T09:23:55.848Z,1021.72
2017-09-29T09:24:56.318Z,1021.70
2017-09-29T09:25:56.766Z,1021.72
2017-09-29T09:26:57.229Z,1021.71
2017-09-29T09:27:57.692Z,1021.68
2017-09-29T09:28:58.137Z,1021.69
2017-09-29T09:29:58.589Z,1021.70
2017-09-29T09:30:59.045Z,1021.70
2017-09-29T09:31:59.511Z,1021.64
2017-09-29T09:32:59.950Z,1021.62
2017-09-29T09:34:00.408Z,1021.62
2017-09-29T09:35:00.865Z,1021.64
2017-09-29T09:36:01.315Z,1021.63
2017-09-29T09:37:01.779Z,1021.60
2017-09-29T09:38:02.225Z,1021.58
2017-09-29T09:39:02.685Z,1021.62
2017-09-29T09:40:03.136Z,1021.62
2017-09-29T09:41:03.592Z,1021.56
2017-09-29T09:42:04.045Z,1021.55
2017-09-29T09:43:04.521Z,1021.51
2017-09-29T09:44:04.965Z,1021.55
2017-09-29T09:45:05.418Z,1021.53
2017-09-29T09:46:05.868Z,1021.56
2017-09-29T09:47:06.323Z,1021.52
2017-09-29T09:48:06.774Z,1021.53
2017-09-29T09:49:07.238Z,1021.56
2017-09-29T09:50:07.714Z,1021.55
2017-09-29T09:51:08.154Z,1021.53
2017-09-29T09:52:08.599Z,1021.52
2017-09-29T09:53:09.055Z,1021.51
2017-09-29T09:54:09.512Z,1021.54
2017-09-29T09:55:09.966Z,1021.48
2017-09-29T09:56:10.437Z,1021.50
2017-09-29T09:57:10.893Z,1021.49
2017-09-29T09:58:11.341Z,1021.50
2017-09-29T09:59:11.787Z,1021.50
2017-09-29T10:00:12.251Z,1021.49
2017-09-29T10:01:12.709Z,1021.55
2017-09-29T10:02:13.164Z,1021.50
2017-09-29T10:03:13.627Z,1021.49
2017-09-29T10:04:14.074Z,1021.52
2017-09-29T10:05:14.532Z,1021.48
2017-09-29T10:06:14.992Z,1021.51
2017-09-29T10:07:15.454Z,1021.45
2017-09-29T10:08:15.939Z,1021.45
2017-09-29T10:09:16.370Z,1021.44
2017-09-29T10:10:16.838Z,1021.45
2017-09-29T10:11:17.278Z,1021.45
2017-09-29T10:12:17.746Z,1021.47
2017-09-29T10:13:18.198Z,1021.50
2017-09-29T10:14:18.655Z,1021.49
2017-09-29T10:15:19.119Z,1021.48
2017-09-29T10:16:19.601Z,1021.51
2017-09-29T10:17:20.025Z,1021.46
2017-09-29T10:18:20.490Z,1021.45
2017-09-29T10:19:20.947Z,1021.42
2017-09-29T10:20:21.404Z,1021.44
2017-09-29T10:21:21.863Z,1021.46
2017-09-29T10:22:22.313Z,1021.44
2017-09-29T10:23:22.780Z,1021.42
2017-09-29T10:24:23.230Z,1021.42
2017-09-29T10:25:23.691Z,1021.43
2017-09-29T10:26:24.150Z,1021.36
2017-09-29T10:27:24.601Z,1021.36
2017-09-29T10:28:25.061Z,1021.34
2017-09-29T10:29:25.512Z,1021.29
2017-09-29T10:30:25.985Z,1021.31
2017-09-29T10:31:26.427Z,1021.30
2017-09-29T10:32:26.899Z,1021.29
2017-09-29T10:33:27.385Z,1021.33
2017-09-29T10:34:27.806Z,1021.31
2017-09-29T10:35:28.252Z,1021.29
2017-09-29T10:36:28.705Z,1021.30
2017-09-29T10:37:29.166Z,1021.28
2017-09-29T10:38:29.626Z,1021.32
2017-09-29T10:39:30.073Z,1021.27
2017-09-29T10:40:30.528Z,1021.25
2017-09-29T10:41:30.985Z,1021.25
2017-09-29T10:42:31.442Z,1021.23
2017-09-29T10:43:31.896Z,1021.26
2017-09-29T10:44:32.360Z,1021.18
2017-09-29T10:45:32.823Z,1021.24
2017-09-29T10:46:33.270Z,1021.19
2017-09-29T10:47:33.728Z,1021.18
2017-09-29T10:48:34.182Z,1021.24
2017-09-29T10:49:34.639Z,1021.16
2017-09-29T10:50:35.098Z,1021.23
2017-09-29T10:51:35.591Z,1021.15
2017-09-29T10:52:36.013Z,1021.17
2017-09-29T10:53:36.467Z,1021.15
2017-09-29T10:54:36.928Z,1021.12
2017-09-29T10:55:37.381Z,1021.13
2017-09-29T10:56:37.837Z,1021.11
2017-09-29T10:57:38.308Z,1021.16
2017-09-29T10:58:38.758Z,1021.15
2017-09-29T10:59:39.216Z,1021.15
2017-09-29T11:00:39.661Z,1021.17
2017-09-29T11:01:40.139Z,1021.15
2017-09-29T11:02:40.583Z,1021.14
2017-09-29T11:03:41.033Z,1021.17
2017-09-29T11:04:41.490Z,1021.18
2017-09-29T11:05:41.946Z,1021.07
2017-09-29T11:06:42.429Z,1021.12
2017-09-29T11:07:42.862Z,1021.08
2017-09-29T11:08:43.321Z,1021.09
2017-09-29T11:09:43.775Z,1021.07
2017-09-29T11:10:44.237Z,1021.06
2017-09-29T11:11:44.717Z,1021.05
2017-09-29T11:12:45.159Z,1021.04
2017-09-29T11:13:45.619Z,1021.03
2017-09-29T11:14:46.068Z,1021.01
2017-09-29T11:15:46.533Z,1020.99
2017-09-29T11:16:47.006Z,1020.99
2017-09-29T11:17:47.450Z,1020.94
2017-09-29T11:18:47.906Z,1021.00
2017-09-29T11:19:48.370Z,1020.93
2017-09-29T11:20:48.829Z,1020.96
2017-09-29T11:21:49.286Z,1020.96
2017-09-29T11:22:49.748Z,1020.89
2017-09-29T11:23:50.213Z,1020.92
2017-09-29T11:24:50.667Z,1020.94
2017-09-29T11:25:51.140Z,1020.88
2017-09-29T11:26:51.595Z,1020.88
2017-09-29T11:27:52.053Z,1020.90
2017-09-29T11:28:52.514Z,1020.92
2017-09-29T11:29:52.968Z,1020.89
2017-09-29T11:30:53.435Z,1020.86
2017-09-29T11:31:53.891Z,1020.87
2017-09-29T11:32:54.675Z,1020.86
2017-09-29T11:33:54.803Z,1020.82
2017-09-29T11:34:55.274Z,1020.86
2017-09-29T11:35:55.748Z,1020.83
2017-09-29T11:36:56.201Z,1020.85
2017-09-29T11:37:56.656Z,1020.82
2017-09-29T11:38:57.116Z,1020.82
2017-09-29T11:39:57.595Z,1020.83
2017-09-29T11:40:58.048Z,1020.84
2017-09-29T11:41:58.504Z,1020.83
2017-09-29T11:42:58.958Z,1020.79
2017-09-29T11:43:59.422Z,1020.90
2017-09-29T11:44:59.878Z,1020.89
2017-09-29T11:46:00.316Z,1020.81
2017-09-29T11:47:00.765Z,1020.85
2017-09-29T11:48:01.230Z,1020.89
2017-09-29T11:49:01.671Z,1020.84
2017-09-29T11:50:02.119Z,1020.85
2017-09-29T11:51:02.572Z,1020.85
2017-09-29T11:52:03.043Z,1020.81
2017-09-29T11:53:03.486Z,1020.87
2017-09-29T11:54:03.932Z,1020.82
2017-09-29T11:55:04.370Z,1020.80
2017-09-29T11:56:04.813Z,1020.78
2017-09-29T11:57:05.254Z,1020.81
2017-09-29T11:58:05.725Z,1020.78
2017-09-29T11:59:06.148Z,1020.80
2017-09-29T12:00:06.589Z,1020.78
2017-09-29T12:01:07.037Z,1020.77
2017-09-29T12:02:07.497Z,1020.76
2017-09-29T12:03:07.930Z,1020.77
2017-09-29T12:04:08.369Z,1020.76
2017-09-29T12:05:08.810Z,1020.73
2017-09-29T12:06:09.263Z,1020.71
2017-09-29T12:07:09.698Z,1020.70
2017-09-29T12:08:10.144Z,1020.74
2017-09-29T12:09:10.588Z,1020.70
2017-09-29T12:10:11.029Z,1020.71
2017-09-29T12:11:11.477Z,1020.65